Time;durP1;ratioP1;P1;durP2;ratioP2;P2;SDS_P1;SDS_P2;PMS_P1;PMS_P2;Temp;Humidity;BMP_temperature;BMP_pressure;BME280_temperature;BME280_humidity;BME280_pressure;Samples;Min_cycle;Max_cycle;Signal;HPM_P1;HPM_P2
2021/10/29 00:00:59;;;;;;;22.00;15.08;;;;;;;12.80;65.76;101243.26;1723541;83;20979;-61
2021/10/29 00:03:26;;;;;;;25.52;15.40;;;;;;;12.79;65.90;101238.09;1723700;83;21026;-61
2021/10/29 00:05:53;;;;;;;24.25;15.72;;;;;;;12.78;65.98;101241.31;1724572;82;20998;-62
2021/10/29 00:08:20;;;;;;;28.60;16.95;;;;;;;12.79;66.03;101244.32;1723797;83;20971;-62
2021/10/29 00:10:47;;;;;;;25.92;17.65;;;;;;;12.81;66.02;101244.11;1723657;83;21139;-61
2021/10/29 00:13:14;;;;;;;27.37;16.20;;;;;;;12.82;66.04;101252.99;1721123;83;21533;-60
2021/10/29 00:15:41;;;;;;;25.50;16.07;;;;;;;12.83;66.07;101245.23;1724143;83;21007;-62
2021/10/29 00:18:08;;;;;;;25.45;15.95;;;;;;;12.84;66.08;101254.94;1723444;83;21002;-61
2021/10/29 00:20:35;;;;;;;30.60;16.30;;;;;;;12.80;66.19;101255.37;1723839;83;21128;-62
2021/10/29 00:23:02;;;;;;;23.73;16.23;;;;;;;12.81;66.22;101260.25;1723963;83;21062;-59
2021/10/29 00:25:28;;;;;;;27.85;16.27;;;;;;;12.79;66.25;101258.27;1723768;83;21287;-61
2021/10/29 00:27:55;;;;;;;31.07;17.30;;;;;;;12.77;66.27;101259.02;1724045;83;20935;-60
2021/10/29 00:30:21;;;;;;;27.00;17.07;;;;;;;12.77;66.31;101260.36;1721138;83;21470;-62
2021/10/29 00:32:48;;;;;;;27.30;16.32;;;;;;;12.77;66.29;101256.32;1723873;83;21055;-62
2021/10/29 00:35:15;;;;;;;24.60;16.05;;;;;;;12.76;66.30;101255.51;1723628;83;21937;-58
2021/10/29 00:37:42;;;;;;;28.65;18.05;;;;;;;12.76;66.35;101260.89;1722737;83;20915;-62
2021/10/29 00:40:11;;;;;;;30.50;17.73;;;;;;;12.78;66.32;101266.06;1723648;83;21493;-61
2021/10/29 00:42:38;;;;;;;30.08;18.05;;;;;;;12.79;66.25;101263.66;1723937;83;20967;-61
2021/10/29 00:45:06;;;;;;;27.58;17.27;;;;;;;12.81;66.05;101269.66;1723816;83;20899;-62
2021/10/29 00:47:34;;;;;;;31.05;17.10;;;;;;;12.82;66.02;101273.17;1722514;83;21011;-61
2021/10/29 00:50:01;;;;;;;26.15;17.40;;;;;;;12.81;66.03;101268.33;1723502;83;20991;-60
2021/10/29 00:52:28;;;;;;;30.45;17.70;;;;;;;12.73;66.09;101265.84;1723695;83;20967;-61
2021/10/29 00:54:55;;;;;;;32.50;17.52;;;;;;;12.66;66.27;101264.53;1723802;83;21560;-61
2021/10/29 00:57:21;;;;;;;29.82;18.27;;;;;;;12.66;66.29;101263.69;1723990;83;20991;-62
2021/10/29 00:59:50;;;;;;;32.25;18.87;;;;;;;12.66;66.31;101267.72;1723576;82;21146;-61
2021/10/29 01:02:17;;;;;;;29.32;17.17;;;;;;;12.66;66.28;101259.16;1723535;83;20943;-62
2021/10/29 01:04:43;;;;;;;30.02;17.62;;;;;;;12.69;66.35;101257.88;1723647;83;20915;-62
2021/10/29 01:07:10;;;;;;;33.05;18.62;;;;;;;12.71;66.33;101252.61;1723670;83;20975;-59
2021/10/29 01:09:36;;;;;;;31.48;18.23;;;;;;;12.73;66.26;101255.90;1722476;83;21398;-59
2021/10/29 01:12:06;;;;;;;28.85;19.62;;;;;;;12.74;66.25;101256.22;1723696;83;21496;-60
2021/10/29 01:14:33;;;;;;;30.88;18.62;;;;;;;12.73;66.24;101255.90;1723988;83;20920;-61
2021/10/29 01:17:00;;;;;;;30.05;18.37;;;;;;;12.73;66.27;101254.55;1723545;83;21023;-60
2021/10/29 01:19:31;;;;;;;25.75;17.17;;;;;;;12.74;66.30;101254.05;1723619;83;21529;-59
2021/10/29 01:22:00;;;;;;;32.33;17.82;;;;;;;12.72;66.42;101246.70;1721817;83;21098;-62
2021/10/29 01:24:27;;;;;;;28.40;17.27;;;;;;;12.74;66.49;101245.98;1723785;83;21268;-59
2021/10/29 01:26:54;;;;;;;30.15;17.73;;;;;;;12.76;66.49;101247.94;1723677;83;20947;-60
2021/10/29 01:29:21;;;;;;;30.55;16.40;;;;;;;12.78;66.48;101246.69;1723683;83;21524;-60
2021/10/29 01:31:48;;;;;;;31.60;17.20;;;;;;;12.79;66.46;101247.01;1723705;82;20974;-62
2021/10/29 01:34:14;;;;;;;25.92;16.17;;;;;;;12.79;66.48;101249.70;1723513;83;21050;-59
2021/10/29 01:36:43;;;;;;;29.70;17.25;;;;;;;12.81;66.49;101249.48;1720947;83;21801;-60
2021/10/29 01:39:11;;;;;;;27.87;16.65;;;;;;;12.83;66.52;101256.00;1721713;83;20912;-61
2021/10/29 01:41:38;;;;;;;22.25;15.78;;;;;;;12.84;66.56;101258.98;1723738;82;20999;-60
2021/10/29 01:44:06;;;;;;;28.05;17.12;;;;;;;12.85;66.54;101248.00;1723477;83;21053;-59
2021/10/29 01:46:33;;;;;;;25.82;15.83;;;;;;;12.86;66.58;101255.58;1724306;83;20876;-62
2021/10/29 01:48:59;;;;;;;23.98;16.55;;;;;;;12.86;66.56;101255.05;1723708;83;21083;-59
2021/10/29 01:51:26;;;;;;;28.52;16.40;;;;;;;12.85;66.60;101251.22;1723914;82;20884;-59
2021/10/29 01:53:53;;;;;;;31.33;17.15;;;;;;;12.84;66.62;101254.94;1723622;83;20928;-59
2021/10/29 01:56:19;;;;;;;27.25;16.20;;;;;;;12.83;66.63;101253.31;1723607;82;21809;-59
2021/10/29 01:58:46;;;;;;;25.32;16.05;;;;;;;12.80;66.73;101255.90;1723645;82;20963;-61
2021/10/29 02:01:13;;;;;;;27.15;15.35;;;;;;;12.78;66.77;101257.45;1724587;82;21137;-61
2021/10/29 02:03:39;;;;;;;23.15;15.20;;;;;;;12.73;66.91;101256.43;1724457;83;20959;-61
2021/10/29 02:06:06;;;;;;;26.52;15.08;;;;;;;12.70;67.06;101256.33;1724612;83;20932;-59
2021/10/29 02:08:33;;;;;;;32.67;16.70;;;;;;;12.70;67.10;101252.81;1724242;83;20947;-62
2021/10/29 02:10:59;;;;;;;23.87;15.20;;;;;;;12.70;67.15;101261.70;1724466;83;21057;-59
2021/10/29 02:13:28;;;;;;;27.95;16.15;;;;;;;12.73;67.19;101264.50;1722060;83;21011;-62
2021/10/29 02:15:54;;;;;;;25.08;15.40;;;;;;;12.72;67.17;101256.11;1724785;82;21007;-59
2021/10/29 02:18:21;;;;;;;22.07;14.10;;;;;;;12.72;67.18;101260.99;1724749;83;20982;-63
2021/10/29 02:20:47;;;;;;;23.18;15.08;;;;;;;12.74;67.19;101265.63;1724078;83;21576;-60
2021/10/29 02:23:14;;;;;;;25.05;15.70;;;;;;;12.75;67.17;101270.48;1724743;82;21504;-59
2021/10/29 02:25:45;;;;;;;26.20;15.80;;;;;;;12.75;67.14;101272.67;1724420;83;21163;-59
2021/10/29 02:28:13;;;;;;;25.37;15.85;;;;;;;12.71;67.15;101273.31;1722301;83;20971;-61
2021/10/29 02:30:40;;;;;;;26.68;16.10;;;;;;;12.69;67.20;101276.22;1724824;83;20908;-62
2021/10/29 02:33:06;;;;;;;23.57;15.20;;;;;;;12.67;67.23;101274.77;1723974;83;21011;-63
2021/10/29 02:35:33;;;;;;;24.18;15.55;;;;;;;12.67;67.29;101280.14;1724457;83;20935;-62
2021/10/29 02:38:00;;;;;;;22.80;15.15;;;;;;;12.66;67.35;101286.05;1722780;83;21523;-59
2021/10/29 02:40:26;;;;;;;24.92;15.15;;;;;;;12.65;67.45;101284.89;1723768;83;21576;-60
2021/10/29 02:42:53;;;;;;;29.23;15.23;;;;;;;12.66;67.51;101285.20;1723755;83;20959;-59
2021/10/29 02:45:20;;;;;;;25.65;16.48;;;;;;;12.64;67.53;101286.76;1723850;83;21457;-63
2021/10/29 02:47:48;;;;;;;23.40;16.40;;;;;;;12.62;67.58;101284.28;1724076;82;21035;-59
2021/10/29 02:50:16;;;;;;;28.47;16.05;;;;;;;12.61;67.61;101288.00;1720951;83;21874;-59
2021/10/29 02:52:43;;;;;;;;;;;;;;;12.61;67.65;101288.52;1724010;83;21544;-60
2021/10/29 02:55:10;;;;;;;25.88;17.48;;;;;;;12.60;67.65;101290.90;1722853;83;20406;-60
2021/10/29 02:57:36;;;;;;;24.45;16.23;;;;;;;12.58;67.67;101292.98;1723912;83;21324;-58
2021/10/29 03:00:06;;;;;;;25.60;16.70;;;;;;;12.56;67.76;101292.38;1723757;81;20880;-61
2021/10/29 03:02:34;;;;;;;28.50;16.17;;;;;;;12.54;67.84;101297.12;1723807;82;21764;-60
2021/10/29 03:05:01;;;;;;;29.50;16.48;;;;;;;12.52;67.90;101295.17;1720863;83;20991;-61
2021/10/29 03:07:28;;;;;;;26.10;17.00;;;;;;;12.50;67.95;101296.72;1724132;82;21571;-58
2021/10/29 03:09:57;;;;;;;26.68;17.50;;;;;;;12.49;67.99;101295.59;1723626;83;20994;-59
2021/10/29 03:12:23;;;;;;;23.77;16.32;;;;;;;12.49;67.95;101307.69;1723740;83;21489;-59
2021/10/29 03:14:51;;;;;;;25.90;17.50;;;;;;;12.48;68.00;101310.06;1723954;82;21844;-58
2021/10/29 03:17:17;;;;;;;27.67;18.23;;;;;;;12.46;68.03;101312.95;1723614;83;20983;-62
2021/10/29 03:19:44;;;;;;;30.23;17.42;;;;;;;12.44;68.11;101316.38;1724524;83;21011;-61
2021/10/29 03:22:10;;;;;;;29.15;18.07;;;;;;;12.43;68.10;101318.75;1724949;82;21021;-61
2021/10/29 03:24:37;;;;;;;26.42;17.02;;;;;;;12.41;68.12;101322.15;1725206;82;20978;-61
2021/10/29 03:27:04;;;;;;;30.52;17.17;;;;;;;12.39;68.17;101318.85;1725331;82;21128;-59
2021/10/29 03:29:31;;;;;;;28.67;17.67;;;;;;;12.37;68.26;101319.59;1725275;83;20980;-60
2021/10/29 03:31:58;;;;;;;28.12;17.55;;;;;;;12.37;68.31;101318.24;1725339;82;20974;-62
2021/10/29 03:34:24;;;;;;;31.25;18.30;;;;;;;12.39;68.35;101318.32;1724979;83;21422;-61
2021/10/29 03:36:51;;;;;;;30.68;17.07;;;;;;;12.42;68.33;101319.78;1725137;83;21036;-61
2021/10/29 03:41:55;;;;;;;24.45;17.12;;;;;;;12.43;68.18;101313.38;1724529;83;21566;-59
2021/10/29 03:44:29;;;;;;;25.95;17.48;;;;;;;12.37;68.24;101315.02;1724952;83;20895;-61
2021/10/29 03:46:50;;;;;;;28.50;17.62;;;;;;;12.26;68.28;101316.98;1724867;82;21026;-61
2021/10/29 03:49:24;;;;;;;26.55;17.00;;;;;;;12.11;68.60;101314.48;1725302;82;20997;-61
2021/10/29 03:51:53;;;;;;;30.00;16.32;;;;;;;12.07;68.88;101323.98;1725112;82;21163;-63
2021/10/29 03:54:38;;;;;;;23.87;16.87;;;;;;;12.01;69.04;101318.91;1722479;83;21551;-60
2021/10/29 03:56:53;;;;;;;28.15;17.25;;;;;;;12.00;69.14;101320.45;1721144;83;20871;-61
2021/10/29 03:59:13;;;;;;;31.65;18.73;;;;;;;11.99;69.13;101325.55;1724941;82;21058;-61
2021/10/29 04:01:40;;;;;;;30.23;16.62;;;;;;;11.99;69.05;101326.36;1725023;83;21027;-59
2021/10/29 04:04:06;;;;;;;33.45;18.77;;;;;;;11.97;68.85;101323.56;1722346;83;21164;-59
2021/10/29 04:06:33;;;;;;;27.60;17.62;;;;;;;11.94;68.81;101332.03;1725119;82;21979;-61
2021/10/29 04:09:00;;;;;;;25.40;17.65;;;;;;;11.89;68.81;101330.74;1725249;83;21576;-60
2021/10/29 04:11:28;;;;;;;28.70;18.98;;;;;;;11.86;68.85;101339.73;1722346;83;20997;-62
2021/10/29 04:13:55;;;;;;;;;;;;;;;11.82;68.91;101341.17;1722495;82;21070;-62
2021/10/29 04:16:22;;;;;;;26.90;17.52;;;;;;;11.81;69.03;101342.22;1719950;83;21138;-61
2021/10/29 04:18:49;;;;;;;31.48;18.40;;;;;;;11.75;69.33;101340.64;1719843;83;20967;-60
2021/10/29 04:21:16;;;;;;;30.88;17.10;;;;;;;11.71;69.56;101351.47;1719685;83;20978;-62
2021/10/29 04:23:42;;;;;;;25.97;17.12;;;;;;;11.67;69.83;101348.86;1719729;83;20940;-61
2021/10/29 04:26:09;;;;;;;27.40;18.27;;;;;;;11.60;70.29;101350.73;1719846;83;21519;-60
2021/10/29 04:28:41;;;;;;;32.58;18.35;;;;;;;11.47;70.44;101356.02;1719577;83;21115;-62
2021/10/29 04:31:06;;;;;;;30.50;19.12;;;;;;;11.34;70.87;101353.59;1719552;83;20983;-61
2021/10/29 04:33:32;;;;;;;32.00;21.00;;;;;;;11.30;71.19;101359.04;1719685;83;20994;-61
2021/10/29 04:35:59;;;;;;;32.35;19.95;;;;;;;11.27;71.52;101363.47;1719627;83;21750;-59
2021/10/29 04:38:26;;;;;;;34.67;22.13;;;;;;;11.21;71.70;101366.95;1719678;83;21433;-60
2021/10/29 04:40:52;;;;;;;35.28;21.45;;;;;;;11.16;72.02;101367.55;1719595;83;21531;-61
2021/10/29 04:43:19;;;;;;;34.75;21.73;;;;;;;11.11;72.20;101376.69;1719838;83;21516;-60
2021/10/29 04:45:46;;;;;;;39.95;21.52;;;;;;;11.10;72.49;101385.78;1719460;83;21429;-61
2021/10/29 04:48:12;;;;;;;36.65;21.82;;;;;;;11.08;72.67;101383.80;1718387;83;21722;-60
2021/10/29 04:50:39;;;;;;;35.43;21.35;;;;;;;11.00;72.78;101382.10;1717932;83;21540;-60
2021/10/29 04:53:05;;;;;;;39.18;20.45;;;;;;;10.97;72.99;101381.67;1718090;83;21886;-63
2021/10/29 04:55:32;;;;;;;33.45;21.90;;;;;;;10.94;73.24;101382.89;1718198;83;21003;-64
2021/10/29 04:57:59;;;;;;;37.60;20.90;;;;;;;10.95;73.45;101382.37;1718254;82;20990;-63
2021/10/29 05:00:25;;;;;;;33.35;21.52;;;;;;;10.96;73.59;101377.33;1713274;82;20951;-61
2021/10/29 05:02:54;;;;;;;36.90;22.00;;;;;;;10.94;73.71;101387.41;1722235;82;21559;-63
2021/10/29 05:05:21;;;;;;;34.75;20.10;;;;;;;10.89;73.99;101393.36;1720147;83;21126;-63
2021/10/29 05:07:48;;;;;;;37.03;20.82;;;;;;;10.90;74.18;101392.87;1719796;83;21065;-62
2021/10/29 05:10:15;;;;;;;35.92;22.25;;;;;;;10.96;74.32;101388.06;1719720;83;21485;-62
2021/10/29 05:12:43;;;;;;;38.75;22.75;;;;;;;11.00;74.29;101384.78;1719358;83;20966;-60
2021/10/29 05:15:11;;;;;;;41.08;22.90;;;;;;;11.06;74.29;101385.86;1719060;83;21007;-59
2021/10/29 05:17:37;;;;;;;42.30;22.77;;;;;;;11.18;74.15;101388.30;1716570;83;21168;-60
2021/10/29 05:20:06;;;;;;;40.92;24.10;;;;;;;11.30;73.98;101382.38;1716517;83;20912;-62
2021/10/29 05:22:32;;;;;;;38.80;25.20;;;;;;;11.42;73.73;101384.81;1720243;83;20903;-63
2021/10/29 05:24:59;;;;;;;43.73;25.60;;;;;;;11.50;73.41;101394.58;1717683;83;21035;-61
2021/10/29 05:27:25;;;;;;;43.17;25.43;;;;;;;11.53;73.18;101404.92;1719302;83;20948;-63
2021/10/29 05:29:52;;;;;;;43.83;25.62;;;;;;;11.51;73.10;101401.09;1718354;83;21136;-62
2021/10/29 05:32:18;;;;;;;44.80;25.80;;;;;;;11.55;73.07;101406.36;1719285;83;21489;-61
2021/10/29 05:34:44;;;;;;;46.95;25.27;;;;;;;11.60;72.94;101414.33;1719157;83;20900;-61
2021/10/29 05:37:11;;;;;;;42.75;24.25;;;;;;;11.61;72.96;101414.66;1719024;83;21002;-63
2021/10/29 05:39:37;;;;;;;39.58;22.32;;;;;;;11.66;72.83;101420.24;1716940;82;21305;-59
2021/10/29 05:42:05;;;;;;;37.30;21.93;;;;;;;11.69;72.70;101422.03;1718239;83;21161;-64
2021/10/29 05:44:33;;;;;;;46.92;24.18;;;;;;;11.73;72.60;101421.95;1718676;83;20999;-61
2021/10/29 05:47:00;;;;;;;36.95;21.07;;;;;;;11.77;72.51;101423.72;1719213;83;20955;-60
2021/10/29 05:49:27;;;;;;;43.98;22.80;;;;;;;11.77;72.46;101427.74;1718828;83;20944;-60
2021/10/29 05:51:55;;;;;;;37.20;20.77;;;;;;;11.80;72.44;101434.05;1718554;83;20963;-59
2021/10/29 05:54:38;;;;;;;38.42;21.07;;;;;;;11.82;72.40;101427.14;1718392;83;21149;-60
2021/10/29 05:56:53;;;;;;;37.25;20.08;;;;;;;11.84;72.31;101421.89;1717564;83;20900;-60
2021/10/29 05:59:19;;;;;;;40.95;19.77;;;;;;;11.85;72.27;101418.67;1718145;82;20948;-65
2021/10/29 06:01:46;;;;;;;41.48;20.95;;;;;;;11.83;72.13;101421.56;1718147;83;21007;-60
2021/10/29 06:04:13;;;;;;;38.65;20.77;;;;;;;11.75;72.15;101430.63;1718023;83;21046;-62
2021/10/29 06:06:40;;;;;;;37.85;21.10;;;;;;;11.70;72.27;101426.39;1718523;83;21112;-63
2021/10/29 06:09:07;;;;;;;45.12;23.27;;;;;;;11.69;72.36;101435.47;1715700;83;21392;-61
2021/10/29 06:11:33;;;;;;;44.30;22.82;;;;;;;11.68;72.45;101435.66;1718949;83;21070;-62
2021/10/29 06:14:00;;;;;;;49.35;24.32;;;;;;;11.69;72.52;101440.84;1719157;83;21062;-62
2021/10/29 06:16:27;;;;;;;54.25;26.05;;;;;;;11.66;72.63;101443.92;1718988;83;20947;-64
2021/10/29 06:18:53;;;;;;;42.90;23.25;;;;;;;11.60;72.72;101447.91;1719025;83;21137;-62
2021/10/29 06:21:31;;;;;;;42.55;23.35;;;;;;;11.55;72.94;101454.69;1718736;83;20955;-60
2021/10/29 06:24:00;;;;;;;62.03;24.60;;;;;;;11.54;72.99;101450.86;1716996;83;21523;-60
2021/10/29 06:26:27;;;;;;;50.03;23.50;;;;;;;11.50;73.19;101459.03;1718649;83;21551;-58
2021/10/29 06:28:49;;;;;;;66.02;23.83;;;;;;;11.42;73.29;101465.36;1717985;83;21364;-60
2021/10/29 06:31:16;;;;;;;33.95;22.25;;;;;;;11.28;73.65;101467.63;1718346;83;21757;-61
2021/10/29 06:33:43;;;;;;;37.83;21.57;;;;;;;11.22;74.13;101471.43;1718126;83;21029;-60
2021/10/29 06:36:10;;;;;;;39.73;23.15;;;;;;;11.26;74.35;101471.03;1718675;83;20912;-62
2021/10/29 06:38:39;;;;;;;36.08;20.55;;;;;;;11.29;74.38;101470.64;1715450;83;21050;-59
2021/10/29 06:41:07;;;;;;;39.83;20.30;;;;;;;11.35;74.43;101466.67;1717972;83;20999;-65
2021/10/29 06:43:43;;;;;;;46.33;23.22;;;;;;;11.42;74.41;101471.25;1717978;83;21123;-60
2021/10/29 06:46:19;;;;;;;36.68;22.32;;;;;;;11.48;74.26;101477.17;1718356;83;21038;-61
2021/10/29 06:48:51;;;;;;;32.93;20.92;;;;;;;11.51;74.23;101480.31;1717072;83;21015;-61
2021/10/29 07:03:31;;;;;;;39.88;20.50;;;;;;;11.52;74.00;101492.69;1719232;83;20947;-59
2021/10/29 07:41:04;;;;;;;36.63;20.92;;;;;;;12.24;72.50;101499.99;1723544;83;21011;-60
2021/10/29 07:43:38;;;;;;;31.07;18.95;;;;;;;12.27;72.31;101502.28;1721289;83;21544;-62
2021/10/29 07:46:04;;;;;;;32.65;20.20;;;;;;;12.29;72.13;101498.04;1722338;83;21097;-63
2021/10/29 07:48:33;;;;;;;39.10;20.68;;;;;;;12.34;71.90;101501.49;1724708;82;21058;-61
2021/10/29 07:51:01;;;;;;;43.17;22.93;;;;;;;12.34;71.77;101500.97;1723860;83;21157;-62
2021/10/29 07:53:29;;;;;;;38.78;23.02;;;;;;;12.36;71.63;101506.14;1724309;83;26698;-64
2021/10/29 07:55:59;;;;;;;37.65;22.00;;;;;;;12.39;71.61;101512.45;1725168;83;21497;-63
2021/10/29 07:58:26;;;;;;;38.73;21.50;;;;;;;12.39;71.54;101511.93;1724099;83;21568;-60
2021/10/29 08:04:22;;;;;;;38.05;22.27;;;;;;;12.42;71.56;101509.36;1724994;83;21529;-60
2021/10/29 08:10:55;;;;;;;34.95;20.75;;;;;;;12.43;71.62;101521.26;1724516;83;20967;-63
2021/10/29 08:16:53;;;;;;;34.08;20.25;;;;;;;12.49;71.71;101520.97;1719762;83;20919;-62
2021/10/29 08:22:50;;;;;;;29.98;18.48;;;;;;;12.53;71.39;101527.61;1717383;83;21034;-59
2021/10/29 08:28:47;;;;;;;37.70;21.55;;;;;;;12.56;70.67;101529.89;1719082;83;21047;-62
2021/10/29 08:34:45;;;;;;;34.95;21.30;;;;;;;12.37;70.30;101532.83;1716463;83;20943;-61
2021/10/29 08:40:42;;;;;;;31.60;18.45;;;;;;;11.99;70.74;101539.19;1719746;83;21003;-62
2021/10/29 08:43:10;;;;;;;37.80;20.55;;;;;;;11.84;71.23;101554.88;1719622;83;21023;-60
2021/10/29 08:45:37;;;;;;;34.40;20.37;;;;;;;11.83;71.69;101553.73;1719915;83;20959;-59
2021/10/29 08:48:06;;;;;;;40.55;21.95;;;;;;;11.88;71.79;101559.33;1719593;83;21975;-59
2021/10/29 08:50:32;;;;;;;40.05;23.00;;;;;;;11.94;71.73;101558.59;1719745;83;20900;-61
2021/10/29 08:52:59;;;;;;;37.05;20.40;;;;;;;12.03;71.73;101563.30;1718774;83;21548;-62
2021/10/29 08:55:27;;;;;;;34.43;21.70;;;;;;;12.09;71.67;101563.31;1719277;83;21100;-60
2021/10/29 08:57:54;;;;;;;36.40;20.40;;;;;;;12.18;71.51;101566.67;1719562;83;21482;-61
2021/10/29 09:00:24;;;;;;;36.50;21.12;;;;;;;12.26;71.36;101561.13;1719773;82;21139;-63
2021/10/29 09:03:03;;;;;;;37.70;22.90;;;;;;;12.33;71.27;101557.64;1714344;83;20975;-60
2021/10/29 09:31:24;;;;;;;41.28;24.40;;;;;;;11.78;72.67;101555.67;1718232;83;21088;-62
2021/10/29 09:34:09;;;;;;;37.45;23.75;;;;;;;11.86;72.64;101554.16;1719445;83;21525;-60
2021/10/29 09:36:41;;;;;;;40.90;25.02;;;;;;;11.94;72.57;101551.87;1717187;83;20971;-63
2021/10/29 09:39:15;;;;;;;39.35;22.82;;;;;;;12.02;72.45;101554.38;1719531;83;21102;-60
2021/10/29 09:46:08;;;;;;;43.85;26.48;;;;;;;12.20;72.20;101545.78;1716859;83;21552;-63
2021/10/29 09:52:31;;;;;;;43.83;24.43;;;;;;;12.33;71.61;101545.02;1719784;83;20935;-61
2021/10/29 09:58:09;;;;;;;39.15;24.50;;;;;;;12.52;71.04;101550.14;1718659;83;20987;-59
2021/10/29 10:04:30;;;;;;;38.65;23.65;;;;;;;12.60;70.72;101549.13;1719524;83;20998;-63
2021/10/29 10:10:26;;;;;;;42.98;25.37;;;;;;;12.74;70.35;101546.79;1719243;83;21023;-60
2021/10/29 10:12:56;;;;;;;42.43;26.27;;;;;;;12.79;70.09;101547.02;1719332;83;21730;-62
2021/10/29 10:15:21;;;;;;;43.50;25.20;;;;;;;12.82;69.98;101547.11;1685587;83;20959;-59
2021/10/29 10:17:50;;;;;;;50.03;26.33;;;;;;;12.85;69.78;101544.53;1719888;83;21031;-63
2021/10/29 10:20:18;;;;;;;44.10;25.82;;;;;;;12.79;69.58;101549.71;1716805;83;20983;-61
2021/10/29 10:22:47;;;;;;;38.83;24.20;;;;;;;12.72;69.86;101550.70;1719787;83;21010;-60
2021/10/29 10:25:37;;;;;;;38.33;23.47;;;;;;;12.72;70.11;101548.87;1718331;83;21794;-60
2021/10/29 10:28:34;;;;;;;38.95;22.80;;;;;;;12.80;70.10;101555.38;1691106;83;21063;-64
2021/10/29 10:45:21;;;;;;;37.55;22.67;;;;;;;12.99;68.77;101556.16;1681546;83;21059;-59
2021/10/29 10:47:50;;;;;;;37.93;23.38;;;;;;;13.06;68.73;101559.66;1719841;83;21540;-60
2021/10/29 10:50:24;;;;;;;36.10;24.00;;;;;;;13.15;68.61;101559.80;1719204;83;21010;-62
2021/10/29 10:53:09;;;;;;;38.10;24.63;;;;;;;13.26;68.65;101549.73;1719654;83;21165;-64
2021/10/29 10:56:26;;;;;;;44.05;25.45;;;;;;;13.37;68.33;101550.18;1717310;83;20892;-62
2021/10/29 10:59:03;;;;;;;37.58;23.73;;;;;;;13.44;68.05;101549.16;1718386;83;20988;-62
2021/10/29 11:02:07;;;;;;;36.05;23.10;;;;;;;13.47;67.52;101546.55;1719965;83;21709;-63
2021/10/29 11:10:01;;;;;;;;;;;;;;;13.18;67.43;101537.02;1713678;83;20992;-63
2021/10/29 11:12:47;;;;;;;34.90;22.35;;;;;;;13.17;67.85;101534.02;1710889;83;20105;-62
2021/10/29 11:15:27;;;;;;;39.42;23.12;;;;;;;13.27;67.78;101531.20;1711746;83;21007;-64
2021/10/29 11:18:02;;;;;;;40.30;23.32;;;;;;;13.40;67.76;101529.59;1711260;83;20940;-60
2021/10/29 11:20:42;;;;;;;44.50;24.37;;;;;;;13.52;67.27;101533.83;1711956;83;21150;-63
2021/10/29 11:23:20;;;;;;;42.23;25.45;;;;;;;13.53;66.78;101536.30;1712060;83;21042;-60
2021/10/29 11:26:01;;;;;;;37.63;23.45;;;;;;;13.45;66.82;101534.63;1711729;83;21059;-63
2021/10/29 11:28:27;;;;;;;41.50;25.20;;;;;;;13.45;66.84;101533.28;1711830;83;21024;-60
2021/10/29 11:30:55;;;;;;;42.65;23.65;;;;;;;13.47;66.74;101530.38;1711690;83;21066;-61
2021/10/29 11:33:23;;;;;;;39.75;24.05;;;;;;;13.43;66.82;101522.44;1711717;83;21103;-61
2021/10/29 11:36:03;;;;;;;40.00;23.62;;;;;;;13.45;66.86;101525.73;1711550;83;21058;-63
2021/10/29 11:38:33;;;;;;;35.95;21.77;;;;;;;13.52;66.83;101528.44;1710982;83;20995;-63
2021/10/29 11:41:01;;;;;;;37.88;23.00;;;;;;;13.59;66.62;101528.73;1710367;83;21509;-59
2021/10/29 11:43:30;;;;;;;35.25;22.62;;;;;;;13.54;66.09;101529.05;1711787;83;20909;-62
2021/10/29 11:46:06;;;;;;;42.00;22.73;;;;;;;13.25;66.45;101533.28;1712071;83;22014;-62
2021/10/29 11:48:54;;;;;;;41.50;22.25;;;;;;;13.02;67.13;101532.34;1711198;83;20956;-63
2021/10/29 11:51:23;;;;;;;41.60;22.37;;;;;;;12.97;67.64;101526.23;1711497;83;21011;-60
2021/10/29 11:56:52;;;;;;;35.50;22.70;;;;;;;13.05;67.77;101527.07;1708237;83;21010;-61
2021/10/29 12:07:34;;;;;;;37.00;23.67;;;;;;;13.07;67.51;101520.45;1707438;83;20944;-62
2021/10/29 12:13:54;;;;;;;40.00;24.10;;;;;;;12.86;68.09;101526.83;1715291;82;20923;-62
2021/10/29 12:19:55;;;;;;;43.87;26.00;;;;;;;12.92;68.03;101527.35;1718843;82;21043;-62
2021/10/29 12:26:21;;;;;;;45.38;24.77;;;;;;;12.65;68.35;101525.65;1715967;83;20974;-63
2021/10/29 12:32:36;;;;;;;41.92;23.07;;;;;;;12.33;69.31;101531.56;1716956;83;20911;-63
2021/10/29 13:04:06;;;;;;;20.08;13.18;;;;;;;10.97;73.33;101539.97;1718506;83;20998;-64
2021/10/29 13:10:09;;;;;;;19.30;11.80;;;;;;;10.37;74.83;101536.66;1716924;83;20486;-64
2021/10/29 13:50:19;;;;;;;19.42;12.20;;;;;;;9.75;77.78;101550.75;1617191;88;21054;-60
2021/10/29 13:54:46;;;;;;;18.62;11.80;;;;;;;9.40;77.37;101541.05;1619685;88;21093;-64
2021/10/29 14:29:35;;;;;;;28.05;16.52;;;;;;;9.63;80.73;101541.01;1616740;88;20994;-65
2021/10/29 14:31:56;;;;;;;26.07;15.78;;;;;;;9.60;80.92;101548.06;1615534;88;21050;-61
2021/10/29 14:34:29;;;;;;;34.78;17.25;;;;;;;9.58;81.05;101550.89;1618009;87;21042;-61
2021/10/29 14:36:58;;;;;;;25.25;13.38;;;;;;;9.57;81.11;101549.25;1615951;88;21376;-64
2021/10/29 14:39:33;;;;;;;26.17;14.45;;;;;;;9.60;81.26;101547.55;1616621;88;20949;-64
2021/10/29 14:42:04;;;;;;;24.32;14.40;;;;;;;9.51;81.41;101541.11;1616987;88;20998;-61
2021/10/29 14:44:29;;;;;;;22.98;13.35;;;;;;;9.36;81.86;101549.11;1637972;86;21056;-60
2021/10/29 14:47:14;;;;;;;29.48;12.55;;;;;;;9.25;82.31;101541.84;1637652;87;20991;-62
2021/10/29 14:52:31;;;;;;;39.15;11.93;;;;;;;9.40;82.43;101547.23;1638420;86;20994;-63
2021/10/29 15:27:32;;;;;;;34.65;13.72;;;;;;;9.19;82.66;101557.80;1649547;86;21058;-64
2021/10/29 15:29:59;;;;;;;23.70;14.13;;;;;;;9.21;82.81;101563.80;1651635;86;21142;-64
2021/10/29 15:46:17;;;;;;;27.37;15.50;;;;;;;9.36;82.51;101567.33;1685859;84;20963;-64
2021/10/29 15:48:52;;;;;;;23.55;13.80;;;;;;;9.40;82.52;101568.64;1688142;84;21368;-61
2021/10/29 15:51:15;;;;;;;38.15;14.35;;;;;;;9.47;82.36;101573.59;1682417;84;21042;-64
2021/10/29 15:53:43;;;;;;;35.60;13.70;;;;;;;9.49;81.93;101571.25;1684523;84;20972;-60
2021/10/29 15:56:17;;;;;;;;;;;;;;;9.43;81.92;101574.14;1686342;84;21188;-64
2021/10/29 15:58:58;;;;;;;24.02;14.63;;;;;;;9.41;81.76;101570.83;1684721;84;20131;-66
2021/10/29 16:17:49;;;;;;;18.62;10.90;;;;;;;8.93;82.16;101587.07;1685988;84;21051;-61
2021/10/29 16:20:16;;;;;;;19.25;10.08;;;;;;;8.89;82.27;101587.09;1687868;84;21075;-64
2021/10/29 16:22:43;;;;;;;26.33;12.43;;;;;;;8.83;82.38;101589.96;1685161;84;21140;-65
2021/10/29 16:25:21;;;;;;;19.35;10.70;;;;;;;8.76;82.51;101603.22;1685318;84;21561;-64
2021/10/29 16:27:53;;;;;;;17.32;8.53;;;;;;;8.68;82.64;101596.57;1683210;84;21095;-60
2021/10/29 16:30:16;;;;;;;23.18;9.33;;;;;;;8.61;82.78;101598.79;1685168;84;20912;-65
2021/10/29 16:35:20;;;;;;;12.23;8.65;;;;;;;8.48;83.03;101592.66;1683886;84;21145;-62
2021/10/29 16:37:49;;;;;;;16.45;9.78;;;;;;;8.49;83.25;101594.34;1685528;84;20947;-61
2021/10/29 16:40:16;;;;;;;18.87;9.20;;;;;;;8.51;83.26;101595.84;1685908;84;21493;-63
2021/10/29 16:42:43;;;;;;;17.30;8.63;;;;;;;8.51;83.33;101604.34;1688681;84;21035;-64
2021/10/29 16:45:11;;;;;;;15.65;10.18;;;;;;;8.52;83.21;101611.36;1688241;84;21036;-65
2021/10/29 16:47:38;;;;;;;14.93;10.00;;;;;;;8.44;83.29;101600.21;1686572;84;21133;-62
2021/10/29 16:50:06;;;;;;;20.08;10.13;;;;;;;8.51;83.70;101600.33;1685785;84;21075;-64
2021/10/29 16:52:33;;;;;;;20.55;10.18;;;;;;;8.64;83.65;101598.44;1686610;84;21493;-61
2021/10/29 16:55:00;;;;;;;20.32;9.20;;;;;;;8.78;83.46;101603.05;1673777;84;21044;-62
2021/10/29 16:57:27;;;;;;;17.77;8.50;;;;;;;8.86;82.81;101603.49;1668703;84;21531;-66